Terminal Aerodrome Forecast
Issued by NWS

Home | Current Version | Previous Version | Graphics & Text | Print | Product List | Glossary On
Versions: 1 2 3 4 5 6 7 8 9 10 11 12 13 14 15
000
FTUS43 KMPX 032342
TAFRNH
TAF
KRNH 032342Z 0400/0424 31016G22KT P6SM FEW030
     FM040600 29012KT P6SM SKC
     FM041200 28008KT P6SM FEW250
     FM042000 29012G20KT P6SM BKN040=

USA.gov is the U.S. government's official web portal to all federal, state and local government web resources and services.